BBC Congo — V2EL3 — position and weather

sailwx.info

Track history (hours):
 
Tides and Currents Weather Stations Pressure Air Temp Water Temp Dewpoint Dewpoint Depression Visibility Wind Speed Wind Dir Waves Ship Positions

BBC Congo

Last reported at 2014-Jul-22 14:33 UTC. Time now 2014-Jul-23 01:41 UTC.
Position N 35°54' W 006°32'.

Length 144 m; draft 8.7 m.

Type: Ship. MMSI: 305466000.

Date/timePositionNaut miles runAvg speedWind from/ knotsBaromVisibWave heightAir tempDewpointWater temp
2014-Jul-22 14:33N 35°54' W 006°32'1514.6
2014-Jul-22 13:34N 35°57' W 006°50'1514.6
2014-Jul-22 12:34N 36°00' W 007°08'1414.3
2014-Jul-22 11:33N 36°04' W 007°25'1514.8
2014-Jul-22 10:33N 36°06' W 007°43'4714.9
2014-Jul-22 07:25N 36°15' W 008°40'1314.7
2014-Jul-22 06:33N 36°17' W 008°55'1514.4
2014-Jul-22 05:31N 36°19' W 009°14'1414.2
2014-Jul-22 04:33N 36°21' W 009°30'1414.1
2014-Jul-22 03:33N 36°24' W 009°48'1414.1
2014-Jul-22 02:33N 36°26' W 010°05'1414.1
2014-Jul-22 01:33N 36°29' W 010°22'6013.9
2014-Jul-21 21:15N 36°38' W 011°35'1014.6
2014-Jul-21 20:33N 36°39' W 011°48'414.9
2014-Jul-21 20:18N 36°40' W 011°53'1114.7
2014-Jul-21 19:33N 36°41' W 012°06'1515.0
2014-Jul-21 18:33N 36°43' W 012°25'1514.8
2014-Jul-21 17:33N 36°46' W 012°43'1514.6
2014-Jul-21 16:33N 36°48' W 013°01'49814.2
2014-Jul-20 05:32N 37°28' W 023°24'1313.7
2014-Jul-20 04:33N 37°29' W 023°41'1413.6
2014-Jul-20 03:33N 37°29' W 023°58'1414.0
2014-Jul-20 02:34N 37°30' W 024°16'1414.0
2014-Jul-20 01:34N 37°30' W 024°33'1413.9
2014-Jul-20 00:34N 37°30' W 024°51'1414.1
2014-Jul-19 23:33N 37°30' W 025°09'1514.8
2014-Jul-19 22:33N 37°30' W 025°27'1414.3
2014-Jul-19 21:34N 37°30' W 025°45'1514.5
2014-Jul-19 20:33N 37°30' W 026°04'1514.9
2014-Jul-19 19:34N 37°30' W 026°22'1515.0
2014-Jul-19 18:33N 37°30' W 026°41'1414.5
2014-Jul-19 17:33N 37°30' W 026°60'1414.4
2014-Jul-19 16:33N 37°30' W 027°18'1514.7
2014-Jul-19 15:33N 37°29' W 027°36'1514.6
2014-Jul-19 14:33N 37°29' W 027°55'1414.3
2014-Jul-19 13:33N 37°29' W 028°13'1414.0
2014-Jul-19 12:33N 37°28' W 028°30'1414.3
2014-Jul-19 11:33N 37°27' W 028°48'1414.1
2014-Jul-19 10:33N 37°27' W 029°06'1414.3
2014-Jul-19 09:33N 37°27' W 029°24'1414.3
2014-Jul-19 08:33N 37°26' W 029°42'1414.3
2014-Jul-19 07:33N 37°26' W 029°60'1414.4
2014-Jul-19 06:33N 37°25' W 030°18'1414.5
2014-Jul-19 05:34N 37°25' W 030°36'1514.6
2014-Jul-19 04:33N 37°24' W 030°55'1414.2
2014-Jul-19 03:33N 37°23' W 031°13'1413.9
2014-Jul-19 02:33N 37°22' W 031°30'1413.9
2014-Jul-19 01:33N 37°21' W 031°47'1514.2
2014-Jul-19 00:31N 37°20' W 032°06'1514.4
2014-Jul-18 23:28N 37°20' W 032°25'  
Track history (hours):
 
Tides and Currents Weather Stations Pressure Air Temp Water Temp Dewpoint Dewpoint Depression Visibility Wind Speed Wind Dir Waves Ship Positions

BBC Congo

Last reported at 2014-Jul-22 14:33 UTC. Time now 2014-Jul-23 01:41 UTC.
Position N 35°54' W 006°32'.

Length 144 m; draft 8.7 m.

Type: Ship. MMSI: 305466000.

Date/timePositionNaut miles runAvg speedWind from/ knotsBaromVisibWave heightAir tempDewpointWater temp
2014-Jul-22 14:33N 35°54' W 006°32'1514.6
2014-Jul-22 13:34N 35°57' W 006°50'1514.6
2014-Jul-22 12:34N 36°00' W 007°08'1414.3
2014-Jul-22 11:33N 36°04' W 007°25'1514.8
2014-Jul-22 10:33N 36°06' W 007°43'4714.9
2014-Jul-22 07:25N 36°15' W 008°40'1314.7
2014-Jul-22 06:33N 36°17' W 008°55'1514.4
2014-Jul-22 05:31N 36°19' W 009°14'1414.2
2014-Jul-22 04:33N 36°21' W 009°30'1414.1
2014-Jul-22 03:33N 36°24' W 009°48'1414.1
2014-Jul-22 02:33N 36°26' W 010°05'1414.1
2014-Jul-22 01:33N 36°29' W 010°22'6013.9
2014-Jul-21 21:15N 36°38' W 011°35'1014.6
2014-Jul-21 20:33N 36°39' W 011°48'414.9
2014-Jul-21 20:18N 36°40' W 011°53'1114.7
2014-Jul-21 19:33N 36°41' W 012°06'1515.0
2014-Jul-21 18:33N 36°43' W 012°25'1514.8
2014-Jul-21 17:33N 36°46' W 012°43'1514.6
2014-Jul-21 16:33N 36°48' W 013°01'49814.2
2014-Jul-20 05:32N 37°28' W 023°24'1313.7
2014-Jul-20 04:33N 37°29' W 023°41'1413.6
2014-Jul-20 03:33N 37°29' W 023°58'1414.0
2014-Jul-20 02:34N 37°30' W 024°16'1414.0
2014-Jul-20 01:34N 37°30' W 024°33'1413.9
2014-Jul-20 00:34N 37°30' W 024°51'1414.1
2014-Jul-19 23:33N 37°30' W 025°09'1514.8
2014-Jul-19 22:33N 37°30' W 025°27'1414.3
2014-Jul-19 21:34N 37°30' W 025°45'1514.5
2014-Jul-19 20:33N 37°30' W 026°04'1514.9
2014-Jul-19 19:34N 37°30' W 026°22'1515.0
2014-Jul-19 18:33N 37°30' W 026°41'1414.5
2014-Jul-19 17:33N 37°30' W 026°60'1414.4
2014-Jul-19 16:33N 37°30' W 027°18'1514.7
2014-Jul-19 15:33N 37°29' W 027°36'1514.6
2014-Jul-19 14:33N 37°29' W 027°55'1414.3
2014-Jul-19 13:33N 37°29' W 028°13'1414.0
2014-Jul-19 12:33N 37°28' W 028°30'1414.3
2014-Jul-19 11:33N 37°27' W 028°48'1414.1
2014-Jul-19 10:33N 37°27' W 029°06'1414.3
2014-Jul-19 09:33N 37°27' W 029°24'1414.3
2014-Jul-19 08:33N 37°26' W 029°42'1414.3
2014-Jul-19 07:33N 37°26' W 029°60'1414.4
2014-Jul-19 06:33N 37°25' W 030°18'1414.5
2014-Jul-19 05:34N 37°25' W 030°36'1514.6
2014-Jul-19 04:33N 37°24' W 030°55'1414.2
2014-Jul-19 03:33N 37°23' W 031°13'1413.9
2014-Jul-19 02:33N 37°22' W 031°30'1413.9
2014-Jul-19 01:33N 37°21' W 031°47'1514.2
2014-Jul-19 00:31N 37°20' W 032°06'1514.4
2014-Jul-18 23:28N 37°20' W 032°25'  

Dump ship's entire track history